Time;durP1;ratioP1;P1;durP2;ratioP2;P2;SDS_P1;SDS_P2;PMS_P1;PMS_P2;Temp;Humidity;BMP_temperature;BMP_pressure;BME280_temperature;BME280_humidity;BME280_pressure;Samples;Min_cycle;Max_cycle;Signal;HPM_P1;HPM_P2
2021/10/08 00:01:28;;;;;;;44.20;25.17;;;8.80;93.80;;;;;;5075923;28;20519;-49
2021/10/08 00:03:54;;;;;;;42.47;23.50;;;8.80;93.80;;;;;;5075682;28;20354;-47
2021/10/08 00:06:21;;;;;;;40.42;23.88;;;8.80;93.80;;;;;;5075973;28;20086;-50
2021/10/08 00:08:46;;;;;;;43.03;23.92;;;8.80;93.80;;;;;;5075908;28;20028;-47
2021/10/08 00:11:12;;;;;;;41.58;24.80;;;8.80;93.70;;;;;;5075797;28;20039;-47
2021/10/08 00:13:38;;;;;;;42.05;23.83;;;8.80;93.70;;;;;;5075634;28;20056;-50
2021/10/08 00:16:07;;;;;;;41.33;24.63;;;8.70;93.70;;;;;;5075652;28;20037;-48
2021/10/08 00:18:35;;;;;;;41.83;24.00;;;8.70;93.70;;;;;;5075720;28;20024;-46
2021/10/08 00:21:01;;;;;;;40.17;23.70;;;8.80;93.70;;;;;;5075585;28;20561;-46
2021/10/08 00:23:27;;;;;;;45.53;25.48;;;8.70;93.70;;;;;;5075531;28;20020;-47
2021/10/08 00:25:53;;;;;;;42.40;24.58;;;8.70;93.70;;;;;;5075478;28;20025;-49
2021/10/08 00:28:19;;;;;;;38.92;24.17;;;8.70;93.70;;;;;;5075717;28;20165;-48
2021/10/08 00:30:45;;;;;;;41.33;24.30;;;8.60;93.60;;;;;;5075261;28;20066;-48
2021/10/08 00:33:10;;;;;;;41.13;23.67;;;8.60;93.60;;;;;;5075293;28;20118;-47
2021/10/08 00:35:36;;;;;;;43.15;24.45;;;8.60;93.60;;;;;;5057288;28;20024;-47
2021/10/08 00:38:06;;;;;;;43.63;23.75;;;8.50;93.60;;;;;;5075546;28;20159;-47
2021/10/08 00:40:36;;;;;;;37.20;22.90;;;8.50;93.60;;;;;;5075530;28;20033;-49
2021/10/08 00:43:03;;;;;;;36.00;23.15;;;8.50;93.60;;;;;;5075555;28;20104;-47
2021/10/08 00:45:29;;;;;;;38.45;22.65;;;8.40;93.50;;;;;;5075130;28;20110;-51
2021/10/08 00:48:06;;;;;;;39.65;22.77;;;8.30;93.60;;;;;;5075044;28;20123;-47
2021/10/08 00:50:38;;;;;;;45.53;25.80;;;8.30;93.60;;;;;;5057360;28;20027;-49
2021/10/08 00:53:07;;;;;;;45.88;25.55;;;8.30;93.70;;;;;;5075593;28;20500;-48
2021/10/08 00:55:34;;;;;;;46.17;26.08;;;8.30;93.70;;;;;;5074959;28;20020;-47
2021/10/08 00:58:00;;;;;;;37.50;21.75;;;8.20;93.70;;;;;;5074938;28;20024;-50
2021/10/08 01:00:26;;;;;;;42.08;25.48;;;8.20;93.80;;;;;;5074671;28;20032;-48
2021/10/08 01:02:52;;;;;;;45.50;25.50;;;8.20;93.70;;;;;;5074643;28;20107;-49
2021/10/08 01:05:18;;;;;;;57.03;28.45;;;8.30;93.90;;;;;;5074904;28;20128;-50
2021/10/08 01:07:43;;;;;;;50.78;27.33;;;8.30;94.00;;;;;;5074528;28;20040;-48
2021/10/08 01:10:09;;;;;;;46.90;26.85;;;8.40;94.10;;;;;;5074670;28;20036;-51
2021/10/08 01:12:35;;;;;;;48.03;27.42;;;8.40;94.10;;;;;;5074367;28;20017;-52
2021/10/08 01:15:02;;;;;;;54.28;28.48;;;8.30;94.10;;;;;;5074302;28;20029;-50
2021/10/08 01:17:28;;;;;;;52.67;27.75;;;8.40;94.30;;;;;;5074319;28;20020;-48
2021/10/08 01:19:53;;;;;;;61.40;31.25;;;8.50;94.40;;;;;;5074214;28;20150;-49
2021/10/08 01:22:19;;;;;;;64.72;31.83;;;8.50;94.40;;;;;;5074441;28;20112;-51
2021/10/08 01:24:45;;;;;;;56.90;31.35;;;8.60;94.40;;;;;;5074170;28;20395;-50
2021/10/08 01:27:11;;;;;;;61.40;30.13;;;8.50;94.40;;;;;;5074153;28;20035;-51
2021/10/08 01:29:49;;;;;;;61.85;33.33;;;8.50;94.40;;;;;;5074211;28;20027;-49
2021/10/08 01:32:15;;;;;;;54.60;31.20;;;8.50;94.50;;;;;;5074480;28;20060;-49
2021/10/08 01:34:41;;;;;;;60.50;28.63;;;8.50;94.50;;;;;;5074129;28;20078;-52
2021/10/08 01:37:07;;;;;;;61.08;34.25;;;8.50;94.60;;;;;;5074452;28;20464;-51
2021/10/08 01:39:32;;;;;;;48.58;29.15;;;8.40;94.60;;;;;;5074602;28;20036;-47
2021/10/08 01:41:58;;;;;;;59.30;31.95;;;8.40;94.60;;;;;;5074017;28;20456;-46
2021/10/08 01:44:24;;;;;;;60.75;30.73;;;8.40;94.70;;;;;;5073918;28;20430;-48
2021/10/08 01:46:50;;;;;;;65.10;32.78;;;8.50;94.70;;;;;;5073874;28;20032;-46
2021/10/08 01:49:15;;;;;;;57.15;29.52;;;8.40;94.50;;;;;;5073910;28;20021;-47
2021/10/08 01:51:41;;;;;;;56.17;30.75;;;8.40;94.50;;;;;;5073755;28;20017;-52
2021/10/08 01:54:07;;;;;;;52.53;29.20;;;8.30;94.40;;;;;;5073845;28;20032;-51
2021/10/08 01:56:33;;;;;;;67.70;32.67;;;8.30;94.50;;;;;;5074399;28;20376;-48
2021/10/08 01:59:01;;;;;;;59.00;30.88;;;8.30;94.60;;;;;;5073558;28;20077;-47
2021/10/08 02:01:27;;;;;;;60.15;32.63;;;8.30;94.70;;;;;;5073487;28;20154;-51
2021/10/08 02:03:53;;;;;;;54.13;30.45;;;8.30;94.70;;;;;;5073344;28;20107;-50
2021/10/08 02:06:18;;;;;;;62.15;29.88;;;8.30;94.70;;;;;;5073192;28;20024;-49
2021/10/08 02:08:44;;;;;;;57.97;29.73;;;8.30;94.80;;;;;;5073563;28;20017;-49
2021/10/08 02:11:10;;;;;;;52.22;28.20;;;8.20;94.90;;;;;;5073321;28;20143;-47
2021/10/08 02:13:35;;;;;;;64.38;31.77;;;8.20;94.80;;;;;;5073491;28;20044;-47
2021/10/08 02:16:01;;;;;;;53.17;30.58;;;8.30;94.90;;;;;;5073362;28;20512;-48
2021/10/08 02:18:29;;;;;;;64.53;31.58;;;8.30;95.00;;;;;;5073203;28;20028;-47
2021/10/08 02:20:54;;;;;;;60.08;31.15;;;8.30;95.00;;;;;;5055614;28;20082;-50
2021/10/08 02:23:20;;;;;;;55.00;29.45;;;8.30;95.10;;;;;;5073071;28;20423;-49
2021/10/08 02:25:46;;;;;;;52.72;28.35;;;8.30;95.10;;;;;;5073164;28;20068;-47
2021/10/08 02:28:12;;;;;;;62.00;32.17;;;8.20;95.10;;;;;;5073068;28;20384;-48
2021/10/08 02:30:37;;;;;;;67.78;31.00;;;8.30;95.20;;;;;;5073221;28;20380;-51
2021/10/08 02:33:03;;;;;;;68.45;31.77;;;8.30;95.20;;;;;;5073115;28;20021;-49
2021/10/08 02:35:29;;;;;;;57.08;30.77;;;8.30;95.20;;;;;;5073254;28;20032;-48
2021/10/08 02:37:54;;;;;;;53.83;26.63;;;8.20;95.20;;;;;;5072948;28;20111;-50
2021/10/08 02:40:20;;;;;;;69.65;32.00;;;8.20;95.20;;;;;;5073036;28;20362;-48
2021/10/08 02:42:46;;;;;;;59.15;30.50;;;8.30;95.30;;;;;;5073259;28;20031;-48
2021/10/08 02:45:12;;;;;;;61.38;32.33;;;8.20;95.20;;;;;;5073386;28;20028;-49
2021/10/08 02:47:38;;;;;;;54.25;28.92;;;8.20;95.30;;;;;;5072872;28;20029;-49
2021/10/08 02:50:04;;;;;;;51.72;28.02;;;8.20;95.30;;;;;;5072845;28;20386;-47
2021/10/08 02:52:30;;;;;;;49.00;26.67;;;8.20;95.30;;;;;;5073178;28;20021;-48
2021/10/08 02:54:55;;;;;;;58.38;27.90;;;8.10;95.30;;;;;;5055064;28;20020;-47
2021/10/08 02:57:21;;;;;;;47.35;27.65;;;8.10;95.30;;;;;;5072861;28;20024;-51
2021/10/08 02:59:47;;;;;;;54.13;27.88;;;8.10;95.30;;;;;;5072993;28;20032;-49
2021/10/08 03:02:12;;;;;;;53.65;28.33;;;8.00;95.30;;;;;;5072977;28;20028;-46
2021/10/08 03:04:40;;;;;;;55.28;27.67;;;8.00;95.30;;;;;;5072373;28;20056;-49
2021/10/08 03:07:05;;;;;;;53.50;28.63;;;8.00;95.30;;;;;;5073611;28;20029;-47
2021/10/08 03:09:31;;;;;;;50.80;27.15;;;7.90;95.30;;;;;;5072805;28;20111;-47
2021/10/08 03:11:57;;;;;;;47.85;26.40;;;7.90;95.30;;;;;;5072950;28;20108;-49
2021/10/08 03:14:22;;;;;;;50.00;27.55;;;7.80;95.30;;;;;;5072692;28;20056;-49
2021/10/08 03:16:48;;;;;;;46.40;23.98;;;7.80;95.20;;;;;;5073400;28;20025;-48
2021/10/08 03:19:14;;;;;;;48.63;28.33;;;7.80;95.20;;;;;;5076745;28;20189;-48
2021/10/08 03:21:39;;;;;;;48.42;25.52;;;7.70;95.30;;;;;;5076629;28;20025;-50
2021/10/08 03:24:05;;;;;;;48.35;26.27;;;7.70;95.30;;;;;;5076909;28;20428;-49
2021/10/08 03:26:31;;;;;;;43.15;25.98;;;7.70;95.30;;;;;;5076845;28;20452;-47
2021/10/08 03:28:57;;;;;;;52.63;27.15;;;7.70;95.30;;;;;;5076530;28;20025;-47
2021/10/08 03:31:22;;;;;;;50.13;24.85;;;7.60;95.20;;;;;;5077053;28;20502;-47
2021/10/08 03:33:48;;;;;;;44.30;24.15;;;7.60;95.20;;;;;;5076500;28;20025;-49
2021/10/08 03:36:29;;;;;;;46.38;24.77;;;7.70;95.20;;;;;;5076460;28;20119;-48
2021/10/08 03:38:55;;;;;;;45.17;25.48;;;7.70;95.20;;;;;;5058356;28;20028;-48
2021/10/08 03:41:21;;;;;;;47.38;28.23;;;7.70;95.10;;;;;;5076561;28;20048;-49
2021/10/08 03:43:47;;;;;;;42.63;23.92;;;7.70;95.10;;;;;;5076614;28;20131;-49
2021/10/08 03:46:14;;;;;;;41.58;24.42;;;7.60;95.10;;;;;;5076572;28;20112;-51
2021/10/08 03:49:27;;;;;;;44.97;25.15;;;7.60;95.10;;;;;;5076225;28;20452;-48
2021/10/08 03:51:29;;;;;;;46.42;24.70;;;7.50;95.10;;;;;;5059552;28;20041;-51
2021/10/08 03:53:55;;;;;;;47.22;24.20;;;7.50;95.10;;;;;;5076103;28;20480;-52
2021/10/08 03:56:22;;;;;;;48.35;25.55;;;7.60;95.20;;;;;;5076233;28;20066;-50
2021/10/08 03:58:47;;;;;;;45.58;24.60;;;7.60;95.20;;;;;;5076285;28;20042;-48
2021/10/08 04:01:13;;;;;;;42.30;23.25;;;7.60;95.20;;;;;;5075928;28;20099;-48
2021/10/08 04:03:39;;;;;;;42.63;23.50;;;7.60;95.10;;;;;;5075815;28;20380;-48
2021/10/08 04:06:04;;;;;;;43.67;24.00;;;7.50;95.10;;;;;;5075302;28;20336;-47
2021/10/08 04:08:30;;;;;;;41.95;23.30;;;7.60;95.20;;;;;;5076129;28;20035;-47
2021/10/08 04:10:56;;;;;;;44.50;21.52;;;7.50;95.10;;;;;;5075900;28;20073;-48
2021/10/08 04:13:22;;;;;;;44.63;24.50;;;7.60;95.10;;;;;;5075648;28;20032;-47
2021/10/08 04:15:47;;;;;;;44.33;22.88;;;7.50;95.10;;;;;;5075742;28;20112;-50
2021/10/08 04:18:13;;;;;;;42.22;22.02;;;7.50;95.10;;;;;;5075600;28;20419;-49
2021/10/08 04:20:40;;;;;;;41.63;24.05;;;7.50;95.10;;;;;;5075531;28;20024;-48
2021/10/08 04:23:05;;;;;;;43.85;24.15;;;7.50;95.10;;;;;;5075613;28;20032;-47
2021/10/08 04:25:31;;;;;;;43.58;23.75;;;7.50;95.10;;;;;;5075655;28;20028;-49
2021/10/08 04:27:57;;;;;;;46.15;23.15;;;7.50;95.10;;;;;;5074970;28;20028;-50
2021/10/08 04:30:22;;;;;;;37.15;22.05;;;7.50;95.10;;;;;;5075422;28;20081;-53
2021/10/08 04:32:48;;;;;;;39.63;22.48;;;7.50;95.10;;;;;;5075401;28;20028;-51
2021/10/08 04:35:14;;;;;;;41.47;23.23;;;7.50;95.10;;;;;;5075604;28;20103;-52
2021/10/08 04:37:40;;;;;;;39.60;21.27;;;7.40;95.10;;;;;;5075641;28;20407;-51
2021/10/08 04:40:07;;;;;;;38.92;22.10;;;7.40;95.10;;;;;;5075291;28;20155;-53
2021/10/08 04:42:33;;;;;;;40.45;21.45;;;7.40;95.10;;;;;;5057293;28;20118;-52
2021/10/08 04:44:58;;;;;;;43.20;22.20;;;7.30;95.10;;;;;;5075310;28;20020;-50
2021/10/08 04:47:24;;;;;;;43.03;23.52;;;7.40;95.10;;;;;;5075119;28;20107;-53
2021/10/08 04:49:49;;;;;;;38.30;21.05;;;7.40;95.10;;;;;;5075141;28;20393;-51
2021/10/08 04:52:15;;;;;;;34.70;22.00;;;7.40;95.10;;;;;;5074863;28;20024;-49
2021/10/08 04:54:41;;;;;;;37.00;22.15;;;7.40;95.10;;;;;;5075239;28;20035;-47
2021/10/08 04:57:07;;;;;;;41.03;23.02;;;7.30;94.90;;;;;;5074895;28;20384;-51
2021/10/08 04:59:34;;;;;;;39.38;22.20;;;7.30;94.80;;;;;;5075160;28;20032;-52
2021/10/08 05:02:00;;;;;;;36.03;20.98;;;7.20;94.60;;;;;;5074934;28;20108;-48
2021/10/08 05:04:25;;;;;;;35.38;19.77;;;7.20;94.70;;;;;;5074747;28;20124;-48
2021/10/08 05:06:51;;;;;;;34.92;19.92;;;7.20;94.60;;;;;;5074850;28;20103;-48
2021/10/08 05:09:17;;;;;;;34.45;18.00;;;7.10;94.50;;;;;;5074552;28;20028;-48
2021/10/08 05:11:42;;;;;;;37.80;20.58;;;7.10;94.50;;;;;;5074323;28;20550;-51
2021/10/08 05:14:10;;;;;;;32.28;18.88;;;7.20;94.60;;;;;;5074449;28;20013;-48
2021/10/08 05:16:37;;;;;;;32.78;19.33;;;7.20;94.40;;;;;;5074384;28;20027;-49
2021/10/08 05:19:03;;;;;;;34.42;17.83;;;7.10;94.30;;;;;;5074551;28;20024;-50
2021/10/08 05:21:29;;;;;;;29.30;17.20;;;7.00;94.40;;;;;;5074606;28;20103;-51
2021/10/08 05:23:54;;;;;;;29.63;17.17;;;6.90;94.50;;;;;;5074261;28;20115;-51
2021/10/08 05:26:20;;;;;;;30.83;18.08;;;7.00;94.60;;;;;;5074257;28;20048;-52
2021/10/08 05:28:46;;;;;;;33.33;20.63;;;7.10;94.60;;;;;;5073811;28;20428;-49
2021/10/08 05:31:11;;;;;;;30.08;16.38;;;7.10;94.50;;;;;;5073728;28;20048;-47
2021/10/08 05:33:37;;;;;;;28.23;17.02;;;7.20;94.60;;;;;;5074546;28;20021;-53
2021/10/08 05:36:03;;;;;;;33.53;18.67;;;7.10;94.50;;;;;;5074105;28;20028;-48
2021/10/08 05:38:29;;;;;;;34.60;17.45;;;7.10;94.50;;;;;;5074212;28;20074;-49
2021/10/08 05:40:55;;;;;;;30.70;17.95;;;7.30;94.40;;;;;;5073039;28;20032;-49
2021/10/08 05:43:21;;;;;;;26.02;17.13;;;7.20;94.10;;;;;;5073838;28;20488;-49
2021/10/08 05:45:47;;;;;;;31.00;18.42;;;7.10;94.10;;;;;;5073758;28;20480;-51
2021/10/08 05:48:13;;;;;;;29.85;16.83;;;7.00;94.10;;;;;;5055565;28;20082;-47
2021/10/08 05:50:38;;;;;;;26.70;15.93;;;7.10;94.30;;;;;;5074287;28;20025;-50
2021/10/08 05:53:10;;;;;;;32.78;17.15;;;7.10;94.30;;;;;;5055621;28;20525;-52
2021/10/08 05:55:37;;;;;;;30.25;17.05;;;7.10;94.20;;;;;;5073887;28;20035;-50
2021/10/08 05:58:03;;;;;;;29.77;17.38;;;7.10;94.30;;;;;;5073651;28;20013;-48
2021/10/08 06:00:28;;;;;;;26.75;15.13;;;7.10;94.30;;;;;;5055697;28;20338;-49
2021/10/08 06:02:54;;;;;;;24.73;15.65;;;7.10;94.30;;;;;;5073632;28;20028;-49
2021/10/08 06:05:20;;;;;;;26.10;15.43;;;7.10;94.30;;;;;;5073283;28;20381;-49
2021/10/08 06:07:46;;;;;;;24.73;15.27;;;7.10;94.30;;;;;;5055920;28;20043;-48
2021/10/08 06:10:12;;;;;;;25.85;14.20;;;7.10;94.30;;;;;;5073230;28;20032;-50
2021/10/08 06:12:37;;;;;;;27.52;16.00;;;7.10;94.30;;;;;;5073165;28;20019;-50
2021/10/08 06:15:03;;;;;;;30.52;16.35;;;7.20;94.30;;;;;;5073417;28;20091;-49
2021/10/08 06:17:29;;;;;;;26.45;16.50;;;7.20;94.20;;;;;;5072932;28;20021;-48
2021/10/08 06:19:56;;;;;;;29.52;17.23;;;7.20;94.20;;;;;;5072992;28;20392;-53
2021/10/08 06:22:22;;;;;;;22.65;15.93;;;7.30;94.00;;;;;;5054713;28;20040;-48
2021/10/08 06:24:48;;;;;;;30.27;15.50;;;7.30;94.00;;;;;;5073219;28;20032;-51
2021/10/08 06:27:13;;;;;;;30.75;17.30;;;7.30;94.00;;;;;;5055556;28;20107;-52
2021/10/08 06:29:39;;;;;;;27.25;15.88;;;7.30;94.00;;;;;;5073293;28;20032;-49
2021/10/08 06:32:07;;;;;;;25.33;15.57;;;7.40;93.90;;;;;;5073148;28;20070;-50
2021/10/08 06:34:33;;;;;;;26.15;15.57;;;7.30;93.80;;;;;;5073289;28;20025;-50
2021/10/08 06:36:59;;;;;;;26.75;16.77;;;7.50;93.70;;;;;;5073478;28;20052;-54
2021/10/08 06:39:25;;;;;;;27.65;17.25;;;7.60;93.40;;;;;;5073000;28;20063;-50
2021/10/08 06:41:51;;;;;;;26.40;17.35;;;7.60;93.30;;;;;;5054837;28;20028;-48
2021/10/08 06:44:18;;;;;;;26.35;16.83;;;7.70;93.40;;;;;;5054857;28;20070;-49
2021/10/08 06:46:44;;;;;;;42.55;22.88;;;7.70;93.30;;;;;;5073073;28;20034;-48
2021/10/08 06:49:10;;;;;;;26.67;14.95;;;7.80;93.30;;;;;;5072643;28;20032;-51
2021/10/08 06:51:36;;;;;;;30.50;15.95;;;7.80;93.00;;;;;;5072352;28;20021;-50
2021/10/08 06:54:03;;;;;;;32.25;16.00;;;7.80;93.00;;;;;;5072614;28;20533;-50
2021/10/08 06:56:29;;;;;;;39.05;16.38;;;7.90;92.80;;;;;;5072683;28;20383;-50
2021/10/08 06:58:56;;;;;;;33.50;16.42;;;8.00;92.80;;;;;;5072651;28;20079;-50
2021/10/08 07:01:22;;;;;;;26.58;14.73;;;8.20;92.80;;;;;;5072884;28;20033;-50
2021/10/08 07:03:48;;;;;;;25.35;14.30;;;8.20;92.40;;;;;;5072642;28;20069;-48
2021/10/08 07:06:13;;;;;;;27.83;15.13;;;8.30;92.30;;;;;;5072623;28;20135;-50
2021/10/08 07:08:39;;;;;;;22.08;13.00;;;8.30;92.10;;;;;;5072836;28;20154;-49
2021/10/08 07:11:05;;;;;;;27.50;14.57;;;8.40;91.90;;;;;;5072041;28;20033;-48
2021/10/08 07:13:31;;;;;;;30.65;14.98;;;8.40;91.80;;;;;;5072693;28;20063;-51
2021/10/08 07:15:58;;;;;;;27.67;15.32;;;8.60;91.60;;;;;;5072898;28;20107;-49
2021/10/08 07:18:33;;;;;;;26.58;15.05;;;8.60;91.30;;;;;;5072320;28;20025;-50
2021/10/08 07:20:59;;;;;;;33.25;14.65;;;8.80;91.30;;;;;;5072173;28;20402;-50
2021/10/08 07:23:25;;;;;;;34.40;15.85;;;8.80;90.90;;;;;;5053901;28;20043;-49
2021/10/08 07:25:51;;;;;;;28.92;15.27;;;8.90;90.80;;;;;;5071708;28;20028;-53
2021/10/08 07:28:18;;;;;;;31.45;16.25;;;9.10;90.60;;;;;;5072182;28;20532;-48
2021/10/08 07:30:44;;;;;;;25.40;13.25;;;9.30;89.90;;;;;;5053715;28;20028;-49
2021/10/08 07:33:10;;;;;;;23.23;14.05;;;9.30;89.30;;;;;;5072075;28;20487;-50
2021/10/08 07:35:35;;;;;;;23.42;12.77;;;9.30;89.80;;;;;;5054494;28;20131;-50
2021/10/08 07:38:01;;;;;;;22.55;12.90;;;9.50;89.20;;;;;;5072040;28;20096;-52
2021/10/08 07:40:27;;;;;;;30.63;13.73;;;9.70;88.70;;;;;;5071943;28;20471;-48
2021/10/08 07:42:53;;;;;;;21.30;13.45;;;9.80;88.50;;;;;;5072272;28;20032;-48
2021/10/08 07:45:18;;;;;;;22.80;12.73;;;10.10;88.00;;;;;;5072368;28;20475;-51
2021/10/08 07:47:44;;;;;;;18.42;12.10;;;10.30;87.20;;;;;;5072246;28;20065;-52
2021/10/08 07:50:10;;;;;;;23.13;13.50;;;10.30;87.00;;;;;;5071872;28;20024;-49
2021/10/08 07:52:37;;;;;;;21.17;12.93;;;10.50;86.70;;;;;;5072505;28;20087;-49
2021/10/08 07:55:05;;;;;;;20.75;11.65;;;10.40;86.90;;;;;;5071978;28;20135;-52
2021/10/08 07:57:31;;;;;;;22.95;11.52;;;10.70;86.70;;;;;;5072109;28;20099;-49
2021/10/08 07:59:56;;;;;;;18.35;11.80;;;11.10;85.50;;;;;;5071788;28;20025;-52
2021/10/08 08:02:23;;;;;;;18.10;9.40;;;11.30;85.20;;;;;;5072367;28;20101;-52
2021/10/08 08:04:49;;;;;;;18.80;10.77;;;11.80;82.90;;;;;;5075329;28;20132;-51
2021/10/08 08:07:15;;;;;;;23.17;9.93;;;12.50;80.80;;;;;;5075447;28;20037;-55
2021/10/08 08:09:40;;;;;;;16.75;10.80;;;12.60;80.00;;;;;;5075931;28;20077;-49
2021/10/08 08:12:08;;;;;;;14.00;9.45;;;12.80;78.90;;;;;;5074908;28;20028;-51
2021/10/08 08:14:33;;;;;;;16.67;8.98;;;12.80;79.20;;;;;;5075249;28;20048;-53
2021/10/08 08:16:59;;;;;;;12.85;9.07;;;13.50;77.40;;;;;;5075027;28;20059;-52
2021/10/08 08:19:25;;;;;;;19.63;10.60;;;14.50;73.70;;;;;;5075325;28;20039;-53
2021/10/08 08:21:50;;;;;;;13.25;8.75;;;15.00;72.30;;;;;;5056845;28;20024;-37
2021/10/08 08:24:16;;;;;;;16.35;9.07;;;15.00;71.10;;;;;;5075196;28;20027;-38
2021/10/08 08:26:42;;;;;;;14.02;9.00;;;15.70;69.20;;;;;;5075045;28;20032;-38
2021/10/08 08:29:07;;;;;;;16.50;9.73;;;15.80;67.60;;;;;;5056898;28;20032;-38
2021/10/08 08:31:33;;;;;;;16.67;9.05;;;16.20;66.70;;;;;;5074678;28;20021;-38
2021/10/08 08:33:59;;;;;;;12.55;8.38;;;16.20;66.50;;;;;;5056465;28;20434;-38
2021/10/08 08:36:26;;;;;;;16.10;9.35;;;16.10;66.70;;;;;;5074449;28;20029;-38
2021/10/08 08:38:51;;;;;;;13.48;9.18;;;16.00;67.80;;;;;;5074409;28;20104;-38
2021/10/08 08:41:17;;;;;;;14.48;10.25;;;16.50;66.40;;;;;;5056467;28;20027;-39
2021/10/08 08:43:43;;;;;;;13.55;10.35;;;16.60;65.50;;;;;;5075081;28;20053;-39
2021/10/08 08:46:09;;;;;;;16.20;9.18;;;16.90;64.70;;;;;;5075269;28;20034;-42
2021/10/08 08:48:36;;;;;;;14.65;9.75;;;16.80;64.70;;;;;;5057028;28;20103;-40
2021/10/08 08:51:02;;;;;;;11.98;8.85;;;17.20;63.40;;;;;;5074720;28;20036;-39
2021/10/08 08:53:27;;;;;;;13.60;9.98;;;17.50;63.50;;;;;;5073761;28;20044;-39
2021/10/08 08:55:53;;;;;;;13.55;10.95;;;17.90;61.70;;;;;;5074025;28;20063;-37
2021/10/08 08:58:20;;;;;;;18.27;10.23;;;18.00;61.30;;;;;;5056330;28;20025;-37
2021/10/08 09:00:58;;;;;;;13.48;9.77;;;18.50;60.20;;;;;;5074007;28;20203;-38
2021/10/08 09:03:25;;;;;;;16.35;10.90;;;18.30;60.10;;;;;;5057980;28;20479;-39
2021/10/08 09:05:50;;;;;;;14.75;10.38;;;18.70;59.20;;;;;;5056537;28;20105;-37
2021/10/08 09:08:16;;;;;;;16.27;10.48;;;18.80;58.50;;;;;;5074460;28;20464;-39
2021/10/08 09:10:46;;;;;;;11.63;9.27;;;18.60;59.70;;;;;;5056480;28;20488;-37
2021/10/08 09:13:14;;;;;;;17.27;11.57;;;18.90;58.40;;;;;;5074310;28;20020;-37
2021/10/08 09:15:53;;;;;;;14.55;10.20;;;19.40;56.60;;;;;;5056652;28;20119;-38
2021/10/08 09:18:21;;;;;;;12.98;9.85;;;19.30;56.90;;;;;;5073865;28;20453;-38
2021/10/08 09:21:00;;;;;;;11.27;8.75;;;19.10;57.50;;;;;;5074073;28;20025;-37
2021/10/08 09:23:37;;;;;;;11.90;9.55;;;19.10;57.80;;;;;;5073648;28;20478;-36
2021/10/08 09:26:12;;;;;;;14.48;10.60;;;19.30;57.00;;;;;;5055590;28;20028;-37
2021/10/08 09:28:52;;;;;;;14.23;10.45;;;19.20;56.40;;;;;;5073899;28;20051;-40
2021/10/08 09:31:18;;;;;;;14.05;9.52;;;18.50;58.70;;;;;;5074141;28;20043;-37
2021/10/08 09:33:44;;;;;;;14.02;8.45;;;17.70;61.20;;;;;;5055749;28;20031;-38
2021/10/08 09:36:15;;;;;;;12.00;8.40;;;17.50;61.10;;;;;;5073800;28;20377;-38
2021/10/08 09:38:45;;;;;;;11.25;8.43;;;17.80;61.80;;;;;;5073292;28;20021;-38
2021/10/08 09:41:11;;;;;;;10.85;7.88;;;18.50;58.70;;;;;;5073939;28;20017;-37
2021/10/08 09:43:36;;;;;;;9.80;8.48;;;17.80;60.20;;;;;;5074817;28;20091;-38
2021/10/08 09:46:04;;;;;;;11.52;9.65;;;17.90;60.80;;;;;;5073483;28;20101;-38
2021/10/08 09:48:43;;;;;;;10.57;8.80;;;17.90;60.80;;;;;;5073659;28;20109;-38
2021/10/08 09:51:17;;;;;;;11.57;8.18;;;18.40;60.50;;;;;;5073379;28;20358;-38
2021/10/08 09:53:48;;;;;;;12.77;7.80;;;18.80;58.10;;;;;;5073053;28;20043;-38
2021/10/08 09:56:35;;;;;;;11.75;7.90;;;19.80;54.80;;;;;;5073065;28;20491;-41
2021/10/08 09:59:03;;;;;;;11.93;9.80;;;19.30;57.20;;;;;;5073146;28;20048;-40
2021/10/08 10:01:35;;;;;;;11.40;8.60;;;19.80;55.80;;;;;;5073182;28;20410;-41
2021/10/08 10:04:03;;;;;;;14.98;8.30;;;20.30;54.10;;;;;;5073160;28;20021;-39
2021/10/08 10:06:28;;;;;;;12.60;8.68;;;20.20;53.90;;;;;;5055183;28;20032;-38
2021/10/08 10:08:54;;;;;;;12.70;9.25;;;20.10;55.20;;;;;;5073239;28;20050;-37
2021/10/08 10:11:23;;;;;;;18.60;10.32;;;20.00;54.10;;;;;;5055333;28;20031;-37
2021/10/08 10:13:57;;;;;;;12.02;9.52;;;20.30;53.80;;;;;;5073670;28;20044;-38
2021/10/08 10:16:25;;;;;;;13.00;9.73;;;20.30;53.50;;;;;;5054490;28;20036;-38
2021/10/08 10:18:56;;;;;;;13.25;9.95;;;19.90;54.80;;;;;;5072692;28;20105;-38
2021/10/08 10:21:23;;;;;;;12.43;9.52;;;19.40;55.80;;;;;;5072865;28;20048;-38
2021/10/08 10:23:59;;;;;;;10.57;9.05;;;18.60;58.60;;;;;;5072566;28;20048;-37
2021/10/08 10:26:27;;;;;;;12.20;9.10;;;19.40;56.60;;;;;;5072111;28;20190;-38
2021/10/08 10:28:55;;;;;;;13.70;9.65;;;19.50;56.10;;;;;;5071943;28;20055;-38
2021/10/08 10:31:22;;;;;;;15.75;11.25;;;20.20;54.60;;;;;;5054830;28;20421;-37
2021/10/08 10:33:56;;;;;;;9.85;8.80;;;19.80;55.00;;;;;;5071831;28;20116;-38
2021/10/08 10:36:27;;;;;;;12.82;9.20;;;19.30;56.90;;;;;;5071851;28;20050;-38
2021/10/08 10:39:12;;;;;;;13.18;10.40;;;19.20;58.30;;;;;;5072465;28;20050;-38
2021/10/08 10:41:40;;;;;;;11.65;9.05;;;18.40;59.80;;;;;;5072466;28;20060;-38
2021/10/08 10:44:41;;;;;;;14.10;9.45;;;19.00;58.90;;;;;;5072555;28;20107;-38
2021/10/08 10:47:26;;;;;;;14.27;8.45;;;19.30;57.70;;;;;;5071436;28;20033;-39
2021/10/08 10:50:27;;;;;;;14.32;8.48;;;19.20;57.30;;;;;;5072349;28;20033;-38
2021/10/08 10:52:59;;;;;;;13.07;8.68;;;19.00;58.70;;;;;;5072328;28;20029;-37
2021/10/08 10:55:25;;;;;;;13.20;8.15;;;19.00;59.00;;;;;;5071951;28;20112;-39
2021/10/08 10:57:55;;;;;;;11.45;7.88;;;19.00;58.50;;;;;;5072427;28;20086;-37
2021/10/08 11:00:29;;;;;;;13.93;9.10;;;18.80;58.70;;;;;;5072157;28;20028;-38
2021/10/08 11:03:07;;;;;;;12.02;9.00;;;18.30;61.40;;;;;;5054330;28;20372;-38
2021/10/08 11:05:38;;;;;;;11.10;9.00;;;18.60;61.00;;;;;;5054037;28;20098;-37
2021/10/08 11:08:09;;;;;;;12.88;8.80;;;19.20;58.70;;;;;;5071803;28;20037;-38
2021/10/08 11:10:38;;;;;;;10.88;8.93;;;19.50;57.50;;;;;;5072297;28;20058;-38
2021/10/08 11:13:29;;;;;;;12.55;9.77;;;19.20;58.10;;;;;;5072807;28;20464;-37
2021/10/08 11:16:07;;;;;;;12.23;9.40;;;19.30;58.50;;;;;;5053877;28;20044;-39
2021/10/08 11:18:49;;;;;;;14.35;9.50;;;18.80;58.90;;;;;;5071855;28;20032;-38
2021/10/08 11:21:38;;;;;;;12.40;10.55;;;18.40;60.50;;;;;;5071999;28;20039;-39
2021/10/08 11:24:23;;;;;;;16.10;10.65;;;19.30;59.60;;;;;;5061687;28;20131;-40
2021/10/08 11:26:54;;;;;;;15.48;10.27;;;18.90;58.70;;;;;;5072035;28;20063;-38
2021/10/08 11:29:21;;;;;;;14.30;10.93;;;19.00;59.50;;;;;;5071881;28;20064;-39
2021/10/08 11:31:57;;;;;;;15.27;11.05;;;19.10;59.10;;;;;;5071837;28;20465;-38
2021/10/08 11:34:22;;;;;;;12.00;9.57;;;19.10;58.70;;;;;;5072047;28;20019;-39
2021/10/08 11:36:58;;;;;;;16.27;12.20;;;19.10;58.90;;;;;;5071969;28;20107;-37
2021/10/08 11:39:24;;;;;;;13.82;10.45;;;19.30;58.80;;;;;;5075857;28;20048;-37
2021/10/08 11:42:02;;;;;;;14.60;10.32;;;20.40;55.10;;;;;;5058196;28;20024;-37
2021/10/08 11:45:15;;;;;;;12.02;9.63;;;20.50;54.90;;;;;;5057889;28;20509;-37
2021/10/08 11:47:28;;;;;;;13.20;11.03;;;20.20;55.20;;;;;;5065416;28;20325;-37
2021/10/08 11:52:57;;;;;;;11.10;9.45;;;18.50;59.80;;;;;;5076709;28;20521;-38
2021/10/08 11:55:26;;;;;;;14.88;10.23;;;17.80;61.20;;;;;;5057687;28;20495;-37
2021/10/08 11:58:07;;;;;;;11.45;7.95;;;17.80;61.70;;;;;;5075530;28;20021;-37
2021/10/08 12:00:50;;;;;;;12.57;7.97;;;17.50;62.20;;;;;;5057776;28;20028;-38
2021/10/08 12:03:20;;;;;;;10.40;6.93;;;17.40;62.10;;;;;;5058090;28;20029;-38
2021/10/08 12:05:58;;;;;;;11.93;7.63;;;17.50;62.10;;;;;;5075369;28;20147;-38
2021/10/08 12:08:33;;;;;;;9.10;5.53;;;17.50;61.80;;;;;;5057913;28;20475;-37
2021/10/08 12:11:00;;;;;;;10.10;6.10;;;17.70;61.60;;;;;;5076601;28;20084;-38
2021/10/08 12:13:45;;;;;;;9.23;6.60;;;17.60;60.10;;;;;;5059654;28;20021;-38
2021/10/08 12:16:13;;;;;;;7.40;6.05;;;17.60;60.70;;;;;;5075527;28;20013;-39
2021/10/08 12:18:55;;;;;;;7.60;6.30;;;17.60;60.30;;;;;;5075018;28;20108;-37
2021/10/08 12:21:24;;;;;;;13.68;8.65;;;17.50;60.50;;;;;;5075017;28;20027;-42
2021/10/08 12:23:53;;;;;;;10.35;6.30;;;17.50;61.00;;;;;;5075099;28;20059;-38
2021/10/08 12:26:20;;;;;;;8.77;5.22;;;17.50;61.40;;;;;;5057106;28;20032;-38
2021/10/08 12:28:53;;;;;;;10.27;5.88;;;17.40;61.00;;;;;;5074866;28;20029;-38
2021/10/08 12:31:19;;;;;;;7.90;6.10;;;17.70;60.40;;;;;;5075382;28;20029;-38
2021/10/08 12:33:47;;;;;;;10.30;6.22;;;17.70;59.90;;;;;;5075482;28;20032;-38
2021/10/08 12:36:30;;;;;;;8.88;6.13;;;17.50;60.50;;;;;;5076082;28;20502;-38
2021/10/08 12:39:06;;;;;;;9.93;6.57;;;17.80;60.10;;;;;;5075581;28;20060;-38
2021/10/08 12:41:49;;;;;;;10.38;5.70;;;17.80;60.00;;;;;;5075124;28;20021;-37
2021/10/08 12:44:23;;;;;;;11.10;6.45;;;17.80;60.00;;;;;;5056784;28;20091;-38